sensor_id;sensor_type;location;lat;lon;timestamp;temperature;humidity
69382;DHT22;56560;50.692;12.844;2024-01-07T00:01:11;2.90;80.20
69382;DHT22;56560;50.692;12.844;2024-01-07T00:03:38;2.80;80.30
69382;DHT22;56560;50.692;12.844;2024-01-07T00:06:05;2.80;80.40
69382;DHT22;56560;50.692;12.844;2024-01-07T00:08:31;2.80;79.80
69382;DHT22;56560;50.692;12.844;2024-01-07T00:10:56;2.90;80.10
69382;DHT22;56560;50.692;12.844;2024-01-07T00:13:22;2.90;79.80
69382;DHT22;56560;50.692;12.844;2024-01-07T00:15:47;2.80;79.90
69382;DHT22;56560;50.692;12.844;2024-01-07T00:18:13;2.70;79.50
69382;DHT22;56560;50.692;12.844;2024-01-07T00:20:39;2.70;79.90
69382;DHT22;56560;50.692;12.844;2024-01-07T00:23:04;2.70;80.00
69382;DHT22;56560;50.692;12.844;2024-01-07T00:25:30;2.60;79.80
69382;DHT22;56560;50.692;12.844;2024-01-07T00:27:55;2.70;79.50
69382;DHT22;56560;50.692;12.844;2024-01-07T00:30:21;2.60;80.40
69382;DHT22;56560;50.692;12.844;2024-01-07T00:32:47;2.50;81.10
69382;DHT22;56560;50.692;12.844;2024-01-07T00:35:12;2.50;81.00
69382;DHT22;56560;50.692;12.844;2024-01-07T00:37:38;2.50;80.90
69382;DHT22;56560;50.692;12.844;2024-01-07T00:40:05;2.40;81.30
69382;DHT22;56560;50.692;12.844;2024-01-07T00:42:31;2.30;82.00
69382;DHT22;56560;50.692;12.844;2024-01-07T00:44:57;2.10;82.50
69382;DHT22;56560;50.692;12.844;2024-01-07T00:47:22;2.00;83.40
69382;DHT22;56560;50.692;12.844;2024-01-07T00:49:48;2.00;82.60
69382;DHT22;56560;50.692;12.844;2024-01-07T00:52:13;1.90;83.70
69382;DHT22;56560;50.692;12.844;2024-01-07T00:54:39;1.90;86.10
69382;DHT22;56560;50.692;12.844;2024-01-07T00:57:05;1.80;84.90
69382;DHT22;56560;50.692;12.844;2024-01-07T00:59:30;1.90;85.90
69382;DHT22;56560;50.692;12.844;2024-01-07T01:01:56;2.00;84.60
69382;DHT22;56560;50.692;12.844;2024-01-07T01:04:22;2.00;85.10
69382;DHT22;56560;50.692;12.844;2024-01-07T01:06:47;2.00;83.50
69382;DHT22;56560;50.692;12.844;2024-01-07T01:09:13;2.00;84.80
69382;DHT22;56560;50.692;12.844;2024-01-07T01:11:39;2.00;84.40
69382;DHT22;56560;50.692;12.844;2024-01-07T01:14:04;2.00;83.50
69382;DHT22;56560;50.692;12.844;2024-01-07T01:16:30;2.10;84.20
69382;DHT22;56560;50.692;12.844;2024-01-07T01:18:55;2.10;82.60
69382;DHT22;56560;50.692;12.844;2024-01-07T01:21:21;2.00;81.80
69382;DHT22;56560;50.692;12.844;2024-01-07T01:23:48;1.90;81.10
69382;DHT22;56560;50.692;12.844;2024-01-07T01:26:14;2.00;81.60
69382;DHT22;56560;50.692;12.844;2024-01-07T01:28:40;1.90;80.60
69382;DHT22;56560;50.692;12.844;2024-01-07T01:31:06;2.00;80.30
69382;DHT22;56560;50.692;12.844;2024-01-07T01:33:31;2.00;78.70
69382;DHT22;56560;50.692;12.844;2024-01-07T01:35:57;2.00;78.80
69382;DHT22;56560;50.692;12.844;2024-01-07T01:38:23;2.00;77.10
69382;DHT22;56560;50.692;12.844;2024-01-07T01:40:53;1.80;78.50
69382;DHT22;56560;50.692;12.844;2024-01-07T01:43:28;1.80;78.90
69382;DHT22;56560;50.692;12.844;2024-01-07T01:45:55;1.80;78.60
69382;DHT22;56560;50.692;12.844;2024-01-07T01:48:22;1.70;78.90
69382;DHT22;56560;50.692;12.844;2024-01-07T01:50:49;1.60;77.90
69382;DHT22;56560;50.692;12.844;2024-01-07T01:53:15;1.50;78.80
69382;DHT22;56560;50.692;12.844;2024-01-07T01:55:44;1.40;79.60
69382;DHT22;56560;50.692;12.844;2024-01-07T01:58:10;1.40;78.90
69382;DHT22;56560;50.692;12.844;2024-01-07T02:00:35;1.40;79.70
69382;DHT22;56560;50.692;12.844;2024-01-07T02:03:01;1.50;79.90
69382;DHT22;56560;50.692;12.844;2024-01-07T02:05:27;1.40;79.20
69382;DHT22;56560;50.692;12.844;2024-01-07T02:07:54;1.40;80.40
69382;DHT22;56560;50.692;12.844;2024-01-07T02:10:22;1.50;80.50
69382;DHT22;56560;50.692;12.844;2024-01-07T02:12:47;1.60;80.20
69382;DHT22;56560;50.692;12.844;2024-01-07T02:15:14;1.70;79.60
69382;DHT22;56560;50.692;12.844;2024-01-07T02:17:40;1.70;79.30
69382;DHT22;56560;50.692;12.844;2024-01-07T02:20:06;1.80;79.20
69382;DHT22;56560;50.692;12.844;2024-01-07T02:22:31;1.90;78.90
69382;DHT22;56560;50.692;12.844;2024-01-07T02:24:57;1.90;78.60
69382;DHT22;56560;50.692;12.844;2024-01-07T02:27:23;1.80;78.80
69382;DHT22;56560;50.692;12.844;2024-01-07T02:29:48;1.70;79.40
69382;DHT22;56560;50.692;12.844;2024-01-07T02:32:14;1.70;79.60
69382;DHT22;56560;50.692;12.844;2024-01-07T02:34:39;1.70;79.00
69382;DHT22;56560;50.692;12.844;2024-01-07T02:37:05;1.60;78.70
69382;DHT22;56560;50.692;12.844;2024-01-07T02:39:31;1.50;79.50
69382;DHT22;56560;50.692;12.844;2024-01-07T02:41:57;1.30;80.40
69382;DHT22;56560;50.692;12.844;2024-01-07T02:44:23;1.30;80.20
69382;DHT22;56560;50.692;12.844;2024-01-07T02:46:48;1.20;81.20
69382;DHT22;56560;50.692;12.844;2024-01-07T02:49:14;1.30;80.90
69382;DHT22;56560;50.692;12.844;2024-01-07T02:51:39;1.40;80.70
69382;DHT22;56560;50.692;12.844;2024-01-07T02:54:05;1.40;79.20
69382;DHT22;56560;50.692;12.844;2024-01-07T02:56:31;1.50;80.20
69382;DHT22;56560;50.692;12.844;2024-01-07T02:58:56;1.50;79.40
69382;DHT22;56560;50.692;12.844;2024-01-07T03:01:22;1.50;78.50
69382;DHT22;56560;50.692;12.844;2024-01-07T03:03:48;1.40;80.30
69382;DHT22;56560;50.692;12.844;2024-01-07T03:06:14;1.40;80.00
69382;DHT22;56560;50.692;12.844;2024-01-07T03:08:40;1.50;78.90
69382;DHT22;56560;50.692;12.844;2024-01-07T03:11:06;1.60;78.90
69382;DHT22;56560;50.692;12.844;2024-01-07T03:13:32;1.60;78.40
69382;DHT22;56560;50.692;12.844;2024-01-07T03:15:58;1.50;77.20
69382;DHT22;56560;50.692;12.844;2024-01-07T03:18:24;1.40;77.00
69382;DHT22;56560;50.692;12.844;2024-01-07T03:20:49;1.40;77.30
69382;DHT22;56560;50.692;12.844;2024-01-07T03:23:15;1.30;76.20
69382;DHT22;56560;50.692;12.844;2024-01-07T03:25:41;1.20;77.90
69382;DHT22;56560;50.692;12.844;2024-01-07T03:28:07;1.20;76.80
69382;DHT22;56560;50.692;12.844;2024-01-07T03:30:32;1.20;78.20
69382;DHT22;56560;50.692;12.844;2024-01-07T03:32:58;1.20;77.20
69382;DHT22;56560;50.692;12.844;2024-01-07T03:35:27;1.20;76.60
69382;DHT22;56560;50.692;12.844;2024-01-07T03:37:52;1.10;76.60
69382;DHT22;56560;50.692;12.844;2024-01-07T03:40:18;0.90;78.80
69382;DHT22;56560;50.692;12.844;2024-01-07T03:42:44;0.90;77.20
69382;DHT22;56560;50.692;12.844;2024-01-07T03:45:09;0.90;79.00
69382;DHT22;56560;50.692;12.844;2024-01-07T03:47:35;0.90;78.60
69382;DHT22;56560;50.692;12.844;2024-01-07T03:50:01;1.00;79.00
69382;DHT22;56560;50.692;12.844;2024-01-07T03:52:26;1.00;77.60
69382;DHT22;56560;50.692;12.844;2024-01-07T03:54:53;1.00;78.20
69382;DHT22;56560;50.692;12.844;2024-01-07T03:57:19;1.00;78.30
69382;DHT22;56560;50.692;12.844;2024-01-07T03:59:45;1.10;78.20
69382;DHT22;56560;50.692;12.844;2024-01-07T04:02:10;0.90;77.70
69382;DHT22;56560;50.692;12.844;2024-01-07T04:04:37;0.80;78.80
69382;DHT22;56560;50.692;12.844;2024-01-07T04:07:02;0.90;79.00
69382;DHT22;56560;50.692;12.844;2024-01-07T04:09:28;0.90;79.20
69382;DHT22;56560;50.692;12.844;2024-01-07T04:11:54;0.90;78.90
69382;DHT22;56560;50.692;12.844;2024-01-07T04:14:19;1.00;78.30
69382;DHT22;56560;50.692;12.844;2024-01-07T04:16:45;1.00;78.60
69382;DHT22;56560;50.692;12.844;2024-01-07T04:19:10;1.00;77.70
69382;DHT22;56560;50.692;12.844;2024-01-07T04:21:36;0.90;78.40
69382;DHT22;56560;50.692;12.844;2024-01-07T04:24:02;0.70;79.10
69382;DHT22;56560;50.692;12.844;2024-01-07T04:26:27;0.70;78.30
69382;DHT22;56560;50.692;12.844;2024-01-07T04:28:53;0.50;79.00
69382;DHT22;56560;50.692;12.844;2024-01-07T04:31:19;0.40;79.80
69382;DHT22;56560;50.692;12.844;2024-01-07T04:33:44;0.50;80.40
69382;DHT22;56560;50.692;12.844;2024-01-07T04:36:10;0.40;79.00
69382;DHT22;56560;50.692;12.844;2024-01-07T04:38:35;0.30;80.80
69382;DHT22;56560;50.692;12.844;2024-01-07T04:41:02;0.30;81.00
69382;DHT22;56560;50.692;12.844;2024-01-07T04:43:27;0.40;80.20
69382;DHT22;56560;50.692;12.844;2024-01-07T04:45:53;0.50;80.20
69382;DHT22;56560;50.692;12.844;2024-01-07T04:48:18;0.60;79.90
69382;DHT22;56560;50.692;12.844;2024-01-07T04:50:44;0.60;79.50
69382;DHT22;56560;50.692;12.844;2024-01-07T04:53:10;0.60;78.50
69382;DHT22;56560;50.692;12.844;2024-01-07T04:55:36;0.50;78.60
69382;DHT22;56560;50.692;12.844;2024-01-07T04:58:02;0.40;80.20
69382;DHT22;56560;50.692;12.844;2024-01-07T05:00:29;0.40;79.40
69382;DHT22;56560;50.692;12.844;2024-01-07T05:02:55;0.30;80.00
69382;DHT22;56560;50.692;12.844;2024-01-07T05:05:20;0.40;80.10
69382;DHT22;56560;50.692;12.844;2024-01-07T05:07:46;0.50;80.20
69382;DHT22;56560;50.692;12.844;2024-01-07T05:10:12;0.60;79.20
69382;DHT22;56560;50.692;12.844;2024-01-07T05:12:37;0.60;78.80
69382;DHT22;56560;50.692;12.844;2024-01-07T05:15:04;0.60;79.00
69382;DHT22;56560;50.692;12.844;2024-01-07T05:17:29;0.60;79.30
69382;DHT22;56560;50.692;12.844;2024-01-07T05:19:55;0.60;78.70
69382;DHT22;56560;50.692;12.844;2024-01-07T05:22:21;0.70;78.70
69382;DHT22;56560;50.692;12.844;2024-01-07T05:24:47;0.70;78.50
69382;DHT22;56560;50.692;12.844;2024-01-07T05:27:13;0.70;78.40
69382;DHT22;56560;50.692;12.844;2024-01-07T05:29:38;0.80;78.20
69382;DHT22;56560;50.692;12.844;2024-01-07T05:32:05;0.70;77.80
69382;DHT22;56560;50.692;12.844;2024-01-07T05:34:31;0.60;77.40
69382;DHT22;56560;50.692;12.844;2024-01-07T05:36:57;0.40;78.70
69382;DHT22;56560;50.692;12.844;2024-01-07T05:39:22;0.40;78.40
69382;DHT22;56560;50.692;12.844;2024-01-07T05:41:48;0.40;79.20
69382;DHT22;56560;50.692;12.844;2024-01-07T05:44:13;0.30;78.50
69382;DHT22;56560;50.692;12.844;2024-01-07T05:46:39;0.30;79.50
69382;DHT22;56560;50.692;12.844;2024-01-07T05:49:05;0.40;79.40
69382;DHT22;56560;50.692;12.844;2024-01-07T05:51:31;0.30;79.20
69382;DHT22;56560;50.692;12.844;2024-01-07T05:53:57;0.40;79.40
69382;DHT22;56560;50.692;12.844;2024-01-07T05:56:23;0.60;78.80
69382;DHT22;56560;50.692;12.844;2024-01-07T05:58:48;0.60;77.50
69382;DHT22;56560;50.692;12.844;2024-01-07T06:01:21;0.60;78.10
69382;DHT22;56560;50.692;12.844;2024-01-07T06:03:48;0.60;76.40
69382;DHT22;56560;50.692;12.844;2024-01-07T06:06:14;0.60;77.20
69382;DHT22;56560;50.692;12.844;2024-01-07T06:08:43;0.50;76.00
69382;DHT22;56560;50.692;12.844;2024-01-07T06:11:09;0.50;77.00
69382;DHT22;56560;50.692;12.844;2024-01-07T06:13:36;0.40;75.70
69382;DHT22;56560;50.692;12.844;2024-01-07T06:16:01;0.20;76.80
69382;DHT22;56560;50.692;12.844;2024-01-07T06:18:27;0.20;77.50
69382;DHT22;56560;50.692;12.844;2024-01-07T06:20:53;0.10;77.80
69382;DHT22;56560;50.692;12.844;2024-01-07T06:23:19;0.10;77.20
69382;DHT22;56560;50.692;12.844;2024-01-07T06:25:44;0.10;77.40
69382;DHT22;56560;50.692;12.844;2024-01-07T06:28:10;0.00;77.60
69382;DHT22;56560;50.692;12.844;2024-01-07T06:30:36;-0.10;77.90
69382;DHT22;56560;50.692;12.844;2024-01-07T06:33:02;0.00;77.90
69382;DHT22;56560;50.692;12.844;2024-01-07T06:35:28;0.00;77.20
69382;DHT22;56560;50.692;12.844;2024-01-07T06:37:53;0.10;77.20
69382;DHT22;56560;50.692;12.844;2024-01-07T06:40:19;0.00;77.10
69382;DHT22;56560;50.692;12.844;2024-01-07T06:42:45;0.00;77.40
69382;DHT22;56560;50.692;12.844;2024-01-07T06:45:13;0.10;77.50
69382;DHT22;56560;50.692;12.844;2024-01-07T06:47:40;-0.10;77.70
69382;DHT22;56560;50.692;12.844;2024-01-07T06:50:06;-0.10;76.80
69382;DHT22;56560;50.692;12.844;2024-01-07T06:52:32;-0.10;77.50
69382;DHT22;56560;50.692;12.844;2024-01-07T06:54:57;-0.10;77.60
69382;DHT22;56560;50.692;12.844;2024-01-07T06:57:23;-0.10;77.80
69382;DHT22;56560;50.692;12.844;2024-01-07T06:59:48;-0.20;78.80
69382;DHT22;56560;50.692;12.844;2024-01-07T07:02:14;-0.10;78.60
69382;DHT22;56560;50.692;12.844;2024-01-07T07:04:40;0.00;79.00
69382;DHT22;56560;50.692;12.844;2024-01-07T07:07:05;0.00;77.50
69382;DHT22;56560;50.692;12.844;2024-01-07T07:09:31;0.10;76.60
69382;DHT22;56560;50.692;12.844;2024-01-07T07:11:56;-0.20;76.70
69382;DHT22;56560;50.692;12.844;2024-01-07T07:14:22;-0.20;78.30
69382;DHT22;56560;50.692;12.844;2024-01-07T07:16:48;-0.20;78.60
69382;DHT22;56560;50.692;12.844;2024-01-07T07:19:13;-0.10;76.90
69382;DHT22;56560;50.692;12.844;2024-01-07T07:21:40;-0.20;76.30
69382;DHT22;56560;50.692;12.844;2024-01-07T07:24:06;-0.30;77.40
69382;DHT22;56560;50.692;12.844;2024-01-07T07:26:32;-0.10;78.00
69382;DHT22;56560;50.692;12.844;2024-01-07T07:28:59;-0.10;77.00
69382;DHT22;56560;50.692;12.844;2024-01-07T07:31:26;-0.20;75.60
69382;DHT22;56560;50.692;12.844;2024-01-07T07:33:51;-0.20;76.40
69382;DHT22;56560;50.692;12.844;2024-01-07T07:36:17;-0.20;75.90
69382;DHT22;56560;50.692;12.844;2024-01-07T07:38:43;-0.20;76.40
69382;DHT22;56560;50.692;12.844;2024-01-07T07:41:08;-0.10;76.60
69382;DHT22;56560;50.692;12.844;2024-01-07T07:43:34;-0.10;75.50
69382;DHT22;56560;50.692;12.844;2024-01-07T07:46:00;-0.10;75.90
69382;DHT22;56560;50.692;12.844;2024-01-07T07:48:28;-0.20;75.60
69382;DHT22;56560;50.692;12.844;2024-01-07T07:50:54;-0.30;75.70
69382;DHT22;56560;50.692;12.844;2024-01-07T07:53:20;-0.20;75.30
69382;DHT22;56560;50.692;12.844;2024-01-07T07:55:45;-0.20;75.10
69382;DHT22;56560;50.692;12.844;2024-01-07T07:58:11;-0.10;75.60
69382;DHT22;56560;50.692;12.844;2024-01-07T08:00:37;-0.10;75.10
69382;DHT22;56560;50.692;12.844;2024-01-07T08:03:02;-0.10;73.40
69382;DHT22;56560;50.692;12.844;2024-01-07T08:05:28;-0.10;73.50
69382;DHT22;56560;50.692;12.844;2024-01-07T08:07:54;-0.10;73.50
69382;DHT22;56560;50.692;12.844;2024-01-07T08:10:23;-0.10;73.80
69382;DHT22;56560;50.692;12.844;2024-01-07T08:12:57;0.00;74.00
69382;DHT22;56560;50.692;12.844;2024-01-07T08:15:26;0.00;73.30
69382;DHT22;56560;50.692;12.844;2024-01-07T08:17:54;0.00;72.90
69382;DHT22;56560;50.692;12.844;2024-01-07T08:20:20;0.10;73.70
69382;DHT22;56560;50.692;12.844;2024-01-07T08:22:49;0.10;73.70
69382;DHT22;56560;50.692;12.844;2024-01-07T08:25:15;0.10;72.50
69382;DHT22;56560;50.692;12.844;2024-01-07T08:27:45;0.20;71.70
69382;DHT22;56560;50.692;12.844;2024-01-07T08:30:16;0.20;71.40
69382;DHT22;56560;50.692;12.844;2024-01-07T08:32:44;0.20;71.20
69382;DHT22;56560;50.692;12.844;2024-01-07T08:35:10;0.10;71.10
69382;DHT22;56560;50.692;12.844;2024-01-07T08:37:39;0.00;72.10
69382;DHT22;56560;50.692;12.844;2024-01-07T08:40:10;0.10;72.70
69382;DHT22;56560;50.692;12.844;2024-01-07T08:42:36;0.10;72.50
69382;DHT22;56560;50.692;12.844;2024-01-07T08:45:02;0.20;72.20
69382;DHT22;56560;50.692;12.844;2024-01-07T08:47:50;0.20;72.50
69382;DHT22;56560;50.692;12.844;2024-01-07T08:50:15;0.20;73.10
69382;DHT22;56560;50.692;12.844;2024-01-07T08:52:43;0.30;72.10
69382;DHT22;56560;50.692;12.844;2024-01-07T08:55:09;0.30;72.20
69382;DHT22;56560;50.692;12.844;2024-01-07T08:57:37;0.30;72.40
69382;DHT22;56560;50.692;12.844;2024-01-07T09:00:25;0.30;72.00
69382;DHT22;56560;50.692;12.844;2024-01-07T09:03:11;0.30;72.50
69382;DHT22;56560;50.692;12.844;2024-01-07T09:08:47;0.30;72.80
69382;DHT22;56560;50.692;12.844;2024-01-07T09:11:27;0.30;71.80
69382;DHT22;56560;50.692;12.844;2024-01-07T09:14:02;0.20;70.70
69382;DHT22;56560;50.692;12.844;2024-01-07T09:16:32;0.10;72.40
69382;DHT22;56560;50.692;12.844;2024-01-07T09:18:57;0.10;70.50
69382;DHT22;56560;50.692;12.844;2024-01-07T09:21:23;0.00;71.30
69382;DHT22;56560;50.692;12.844;2024-01-07T09:23:49;0.00;71.70
69382;DHT22;56560;50.692;12.844;2024-01-07T09:26:26;-0.10;72.60
69382;DHT22;56560;50.692;12.844;2024-01-07T09:29:04;-0.10;72.70
69382;DHT22;56560;50.692;12.844;2024-01-07T09:31:32;0.00;72.30
69382;DHT22;56560;50.692;12.844;2024-01-07T09:34:06;0.10;71.80
69382;DHT22;56560;50.692;12.844;2024-01-07T09:36:41;0.10;72.20
69382;DHT22;56560;50.692;12.844;2024-01-07T09:39:41;0.20;71.70
69382;DHT22;56560;50.692;12.844;2024-01-07T09:42:15;0.30;71.60
69382;DHT22;56560;50.692;12.844;2024-01-07T09:44:44;0.30;71.60
69382;DHT22;56560;50.692;12.844;2024-01-07T09:47:14;0.30;70.50
69382;DHT22;56560;50.692;12.844;2024-01-07T09:49:41;0.30;70.60
69382;DHT22;56560;50.692;12.844;2024-01-07T09:52:15;0.30;70.40
69382;DHT22;56560;50.692;12.844;2024-01-07T09:54:48;0.30;70.30
69382;DHT22;56560;50.692;12.844;2024-01-07T09:57:28;0.30;69.80
69382;DHT22;56560;50.692;12.844;2024-01-07T10:00:05;0.20;70.00
69382;DHT22;56560;50.692;12.844;2024-01-07T10:02:39;0.30;70.80
69382;DHT22;56560;50.692;12.844;2024-01-07T10:05:10;0.30;69.40
69382;DHT22;56560;50.692;12.844;2024-01-07T10:07:44;0.20;68.50
69382;DHT22;56560;50.692;12.844;2024-01-07T10:10:17;0.00;69.00
69382;DHT22;56560;50.692;12.844;2024-01-07T10:12:48;-0.10;70.90
69382;DHT22;56560;50.692;12.844;2024-01-07T10:15:23;-0.10;70.80
69382;DHT22;56560;50.692;12.844;2024-01-07T10:18:08;-0.10;69.90
69382;DHT22;56560;50.692;12.844;2024-01-07T10:23:25;-0.50;70.20
69382;DHT22;56560;50.692;12.844;2024-01-07T10:26:13;-0.40;70.80
69382;DHT22;56560;50.692;12.844;2024-01-07T10:28:56;-0.40;69.90
69382;DHT22;56560;50.692;12.844;2024-01-07T10:31:22;-0.30;71.10
69382;DHT22;56560;50.692;12.844;2024-01-07T10:34:06;-0.10;69.50
69382;DHT22;56560;50.692;12.844;2024-01-07T10:36:50;-0.10;69.80
69382;DHT22;56560;50.692;12.844;2024-01-07T10:39:28;0.10;69.60
69382;DHT22;56560;50.692;12.844;2024-01-07T10:42:13;0.20;69.10
69382;DHT22;56560;50.692;12.844;2024-01-07T10:44:39;0.30;68.10
69382;DHT22;56560;50.692;12.844;2024-01-07T10:47:07;0.30;68.80
69382;DHT22;56560;50.692;12.844;2024-01-07T10:49:38;0.20;67.80
69382;DHT22;56560;50.692;12.844;2024-01-07T10:52:14;0.20;67.40
69382;DHT22;56560;50.692;12.844;2024-01-07T10:55:17;0.10;67.30
69382;DHT22;56560;50.692;12.844;2024-01-07T10:58:12;0.20;67.60
69382;DHT22;56560;50.692;12.844;2024-01-07T11:00:41;0.20;67.10
69382;DHT22;56560;50.692;12.844;2024-01-07T11:08:54;-0.10;67.50
69382;DHT22;56560;50.692;12.844;2024-01-07T11:11:37;-0.10;67.40
69382;DHT22;56560;50.692;12.844;2024-01-07T11:20:12;0.00;66.70
69382;DHT22;56560;50.692;12.844;2024-01-07T11:22:41;-0.10;66.50
69382;DHT22;56560;50.692;12.844;2024-01-07T11:25:29;-0.10;66.40
69382;DHT22;56560;50.692;12.844;2024-01-07T11:28:01;-0.20;66.40
69382;DHT22;56560;50.692;12.844;2024-01-07T11:30:30;-0.20;65.60
69382;DHT22;56560;50.692;12.844;2024-01-07T11:33:07;-0.30;66.50
69382;DHT22;56560;50.692;12.844;2024-01-07T11:36:07;-0.30;66.80
69382;DHT22;56560;50.692;12.844;2024-01-07T11:38:36;-0.20;66.90
69382;DHT22;56560;50.692;12.844;2024-01-07T11:41:06;-0.20;66.10
69382;DHT22;56560;50.692;12.844;2024-01-07T11:43:32;-0.10;65.90
69382;DHT22;56560;50.692;12.844;2024-01-07T11:46:02;-0.10;66.70
69382;DHT22;56560;50.692;12.844;2024-01-07T11:48:28;-0.10;66.20
69382;DHT22;56560;50.692;12.844;2024-01-07T11:51:02;0.00;66.20
69382;DHT22;56560;50.692;12.844;2024-01-07T11:53:28;0.00;64.90
69382;DHT22;56560;50.692;12.844;2024-01-07T11:55:53;-0.10;65.00
69382;DHT22;56560;50.692;12.844;2024-01-07T11:58:19;-0.10;65.20
69382;DHT22;56560;50.692;12.844;2024-01-07T12:00:52;-0.10;66.00
69382;DHT22;56560;50.692;12.844;2024-01-07T12:03:17;0.00;65.50
69382;DHT22;56560;50.692;12.844;2024-01-07T12:05:44;0.00;63.30
69382;DHT22;56560;50.692;12.844;2024-01-07T12:08:10;-0.20;64.60
69382;DHT22;56560;50.692;12.844;2024-01-07T12:10:41;-0.20;65.00
69382;DHT22;56560;50.692;12.844;2024-01-07T12:13:07;-0.20;65.80
69382;DHT22;56560;50.692;12.844;2024-01-07T12:15:34;-0.20;65.50
69382;DHT22;56560;50.692;12.844;2024-01-07T12:18:06;-0.10;65.00
69382;DHT22;56560;50.692;12.844;2024-01-07T12:20:35;-0.10;63.80
69382;DHT22;56560;50.692;12.844;2024-01-07T12:23:13;-0.20;64.40
69382;DHT22;56560;50.692;12.844;2024-01-07T12:25:39;-0.20;64.70
69382;DHT22;56560;50.692;12.844;2024-01-07T12:28:10;-0.10;63.80
69382;DHT22;56560;50.692;12.844;2024-01-07T12:30:36;-0.30;63.40
69382;DHT22;56560;50.692;12.844;2024-01-07T12:33:04;-0.60;65.70
69382;DHT22;56560;50.692;12.844;2024-01-07T12:35:30;-0.60;64.90
69382;DHT22;56560;50.692;12.844;2024-01-07T12:37:59;-0.80;64.60
69382;DHT22;56560;50.692;12.844;2024-01-07T12:40:25;-0.80;64.70
69382;DHT22;56560;50.692;12.844;2024-01-07T12:42:52;-0.80;65.10
69382;DHT22;56560;50.692;12.844;2024-01-07T12:45:18;-0.90;65.30
69382;DHT22;56560;50.692;12.844;2024-01-07T12:47:44;-1.00;65.40
69382;DHT22;56560;50.692;12.844;2024-01-07T12:50:11;-0.90;65.90
69382;DHT22;56560;50.692;12.844;2024-01-07T12:52:40;-1.00;64.40
69382;DHT22;56560;50.692;12.844;2024-01-07T12:55:06;-1.10;66.20
69382;DHT22;56560;50.692;12.844;2024-01-07T12:57:33;-1.00;64.80
69382;DHT22;56560;50.692;12.844;2024-01-07T12:59:59;-1.20;64.40
69382;DHT22;56560;50.692;12.844;2024-01-07T13:02:25;-1.20;65.90
69382;DHT22;56560;50.692;12.844;2024-01-07T13:04:51;-1.10;65.50
69382;DHT22;56560;50.692;12.844;2024-01-07T13:07:16;-1.00;65.80
69382;DHT22;56560;50.692;12.844;2024-01-07T13:09:42;-0.80;65.20
69382;DHT22;56560;50.692;12.844;2024-01-07T13:12:10;-0.60;64.50
69382;DHT22;56560;50.692;12.844;2024-01-07T13:14:36;-0.50;63.70
69382;DHT22;56560;50.692;12.844;2024-01-07T13:17:01;-0.40;63.30
69382;DHT22;56560;50.692;12.844;2024-01-07T13:19:28;-0.30;63.00
69382;DHT22;56560;50.692;12.844;2024-01-07T13:21:53;-0.30;62.10
69382;DHT22;56560;50.692;12.844;2024-01-07T13:24:24;-0.40;63.40
69382;DHT22;56560;50.692;12.844;2024-01-07T13:26:49;-0.30;62.80
69382;DHT22;56560;50.692;12.844;2024-01-07T13:29:15;-0.20;61.80
69382;DHT22;56560;50.692;12.844;2024-01-07T13:31:41;-0.20;61.50
69382;DHT22;56560;50.692;12.844;2024-01-07T13:34:06;-0.10;60.80
69382;DHT22;56560;50.692;12.844;2024-01-07T13:36:32;-0.50;59.60
69382;DHT22;56560;50.692;12.844;2024-01-07T13:38:58;-0.60;62.20
69382;DHT22;56560;50.692;12.844;2024-01-07T13:41:23;-0.60;61.90
69382;DHT22;56560;50.692;12.844;2024-01-07T13:43:49;-0.50;61.90
69382;DHT22;56560;50.692;12.844;2024-01-07T13:46:15;-0.40;60.60
69382;DHT22;56560;50.692;12.844;2024-01-07T13:48:40;-0.40;61.10
69382;DHT22;56560;50.692;12.844;2024-01-07T13:51:09;-0.40;60.90
69382;DHT22;56560;50.692;12.844;2024-01-07T13:53:35;-0.30;60.80
69382;DHT22;56560;50.692;12.844;2024-01-07T13:56:00;-0.40;59.30
69382;DHT22;56560;50.692;12.844;2024-01-07T13:58:26;-0.40;60.20
69382;DHT22;56560;50.692;12.844;2024-01-07T14:00:52;-0.40;60.10
69382;DHT22;56560;50.692;12.844;2024-01-07T14:03:17;-0.30;60.30
69382;DHT22;56560;50.692;12.844;2024-01-07T14:05:43;-0.30;60.20
69382;DHT22;56560;50.692;12.844;2024-01-07T14:08:09;-0.40;60.60
69382;DHT22;56560;50.692;12.844;2024-01-07T14:10:34;-0.30;60.80
69382;DHT22;56560;50.692;12.844;2024-01-07T14:13:02;-0.30;59.50
69382;DHT22;56560;50.692;12.844;2024-01-07T14:15:28;-0.40;60.90
69382;DHT22;56560;50.692;12.844;2024-01-07T14:17:54;-0.70;59.30
69382;DHT22;56560;50.692;12.844;2024-01-07T14:20:20;-1.00;61.90
69382;DHT22;56560;50.692;12.844;2024-01-07T14:22:46;-1.00;62.20
69382;DHT22;56560;50.692;12.844;2024-01-07T14:25:12;-1.00;61.50
69382;DHT22;56560;50.692;12.844;2024-01-07T14:27:39;-1.10;62.40
69382;DHT22;56560;50.692;12.844;2024-01-07T14:30:06;-1.00;62.70
69382;DHT22;56560;50.692;12.844;2024-01-07T14:32:32;-0.90;62.90
69382;DHT22;56560;50.692;12.844;2024-01-07T14:34:59;-1.00;62.20
69382;DHT22;56560;50.692;12.844;2024-01-07T14:37:24;-1.00;61.90
69382;DHT22;56560;50.692;12.844;2024-01-07T14:39:52;-1.10;62.30
69382;DHT22;56560;50.692;12.844;2024-01-07T14:42:17;-1.10;62.70
69382;DHT22;56560;50.692;12.844;2024-01-07T14:44:44;-1.00;62.20
69382;DHT22;56560;50.692;12.844;2024-01-07T14:47:09;-0.90;62.80
69382;DHT22;56560;50.692;12.844;2024-01-07T14:49:35;-0.90;62.50
69382;DHT22;56560;50.692;12.844;2024-01-07T14:52:00;-0.90;62.10
69382;DHT22;56560;50.692;12.844;2024-01-07T14:54:26;-0.80;62.20
69382;DHT22;56560;50.692;12.844;2024-01-07T14:56:52;-0.90;62.40
69382;DHT22;56560;50.692;12.844;2024-01-07T14:59:17;-0.90;62.40
69382;DHT22;56560;50.692;12.844;2024-01-07T15:01:43;-0.90;62.30
69382;DHT22;56560;50.692;12.844;2024-01-07T15:04:10;-0.90;62.70
69382;DHT22;56560;50.692;12.844;2024-01-07T15:06:42;-0.80;63.40
69382;DHT22;56560;50.692;12.844;2024-01-07T15:09:09;-0.80;63.00
69382;DHT22;56560;50.692;12.844;2024-01-07T15:11:36;-0.80;61.90
69382;DHT22;56560;50.692;12.844;2024-01-07T15:14:10;-0.90;63.10
69382;DHT22;56560;50.692;12.844;2024-01-07T15:16:36;-0.90;62.30
69382;DHT22;56560;50.692;12.844;2024-01-07T15:19:02;-1.00;62.60
69382;DHT22;56560;50.692;12.844;2024-01-07T15:21:28;-1.00;63.70
69382;DHT22;56560;50.692;12.844;2024-01-07T15:23:54;-0.90;64.60
69382;DHT22;56560;50.692;12.844;2024-01-07T15:26:19;-1.00;63.00
69382;DHT22;56560;50.692;12.844;2024-01-07T15:28:45;-1.10;62.60
69382;DHT22;56560;50.692;12.844;2024-01-07T15:31:10;-1.20;63.70
69382;DHT22;56560;50.692;12.844;2024-01-07T15:33:36;-1.30;62.60
69382;DHT22;56560;50.692;12.844;2024-01-07T15:36:05;-1.60;62.60
69382;DHT22;56560;50.692;12.844;2024-01-07T15:38:31;-1.60;64.20
69382;DHT22;56560;50.692;12.844;2024-01-07T15:40:57;-1.70;64.80
69382;DHT22;56560;50.692;12.844;2024-01-07T15:43:22;-1.60;65.00
69382;DHT22;56560;50.692;12.844;2024-01-07T15:45:48;-1.50;64.90